sensor_id;sensor_type;location;lat;lon;timestamp;pressure;altitude;pressure_sealevel;temperature;humidity
34177;BME280;20450;49.074;9.158;2024-01-27T00:00:04;101578.13;;;4.54;82.50
34177;BME280;20450;49.074;9.158;2024-01-27T00:02:34;101577.88;;;4.57;82.59
34177;BME280;20450;49.074;9.158;2024-01-27T00:05:01;101577.31;;;4.42;82.75
34177;BME280;20450;49.074;9.158;2024-01-27T00:07:29;101577.81;;;4.36;82.77
34177;BME280;20450;49.074;9.158;2024-01-27T00:09:57;101587.88;;;4.44;83.43
34177;BME280;20450;49.074;9.158;2024-01-27T00:12:24;101584.13;;;4.46;83.44
34177;BME280;20450;49.074;9.158;2024-01-27T00:14:54;101589.22;;;4.49;83.02
34177;BME280;20450;49.074;9.158;2024-01-27T00:17:22;101589.34;;;4.48;82.13
34177;BME280;20450;49.074;9.158;2024-01-27T00:19:54;101589.34;;;4.48;82.16
34177;BME280;20450;49.074;9.158;2024-01-27T00:22:21;101595.53;;;4.48;82.17
34177;BME280;20450;49.074;9.158;2024-01-27T00:24:48;101593.03;;;4.36;82.51
34177;BME280;20450;49.074;9.158;2024-01-27T00:27:15;101591.63;;;4.21;82.32
34177;BME280;20450;49.074;9.158;2024-01-27T00:29:42;101603.00;;;4.34;82.54
34177;BME280;20450;49.074;9.158;2024-01-27T00:32:11;101607.59;;;4.43;81.77
34177;BME280;20450;49.074;9.158;2024-01-27T00:34:38;101610.16;;;4.44;80.63
34177;BME280;20450;49.074;9.158;2024-01-27T00:37:05;101608.19;;;4.46;81.43
34177;BME280;20450;49.074;9.158;2024-01-27T00:39:32;101613.84;;;4.32;82.14
34177;BME280;20450;49.074;9.158;2024-01-27T00:41:59;101603.84;;;4.02;83.36
34177;BME280;20450;49.074;9.158;2024-01-27T00:44:26;101598.19;;;3.85;84.43
34177;BME280;20450;49.074;9.158;2024-01-27T00:46:53;101609.06;;;3.93;85.02
34177;BME280;20450;49.074;9.158;2024-01-27T00:49:21;101601.41;;;3.99;85.26
34177;BME280;20450;49.074;9.158;2024-01-27T00:51:48;101598.00;;;4.08;85.40
34177;BME280;20450;49.074;9.158;2024-01-27T00:54:16;101601.84;;;4.16;85.09
34177;BME280;20450;49.074;9.158;2024-01-27T00:56:43;101609.75;;;4.17;84.63
34177;BME280;20450;49.074;9.158;2024-01-27T00:59:10;101602.97;;;4.13;84.46
34177;BME280;20450;49.074;9.158;2024-01-27T01:01:37;101610.00;;;4.14;84.46
34177;BME280;20450;49.074;9.158;2024-01-27T01:04:04;101609.06;;;4.15;84.43
34177;BME280;20450;49.074;9.158;2024-01-27T01:06:32;101603.84;;;4.02;84.40
34177;BME280;20450;49.074;9.158;2024-01-27T01:09:00;101607.50;;;4.01;84.70
34177;BME280;20450;49.074;9.158;2024-01-27T01:11:27;101606.41;;;4.04;85.02
34177;BME280;20450;49.074;9.158;2024-01-27T01:13:54;101612.69;;;4.14;84.39
34177;BME280;20450;49.074;9.158;2024-01-27T01:16:21;101626.84;;;4.26;84.07
34177;BME280;20450;49.074;9.158;2024-01-27T01:18:48;101628.31;;;4.30;82.92
34177;BME280;20450;49.074;9.158;2024-01-27T01:21:15;101626.28;;;4.22;83.19
34177;BME280;20450;49.074;9.158;2024-01-27T01:23:43;101640.78;;;4.08;83.34
34177;BME280;20450;49.074;9.158;2024-01-27T01:26:10;101622.31;;;3.94;83.27
34177;BME280;20450;49.074;9.158;2024-01-27T01:28:37;101619.72;;;3.61;84.36
34177;BME280;20450;49.074;9.158;2024-01-27T01:31:06;101624.69;;;3.55;85.09
34177;BME280;20450;49.074;9.158;2024-01-27T01:33:33;101632.69;;;3.55;85.29
34177;BME280;20450;49.074;9.158;2024-01-27T01:36:00;101633.78;;;3.63;85.71
34177;BME280;20450;49.074;9.158;2024-01-27T01:38:27;101631.47;;;3.70;85.71
34177;BME280;20450;49.074;9.158;2024-01-27T01:40:56;101632.94;;;3.74;85.63
34177;BME280;20450;49.074;9.158;2024-01-27T01:43:23;101646.44;;;3.50;85.71
34177;BME280;20450;49.074;9.158;2024-01-27T01:45:50;101646.03;;;3.44;86.40
34177;BME280;20450;49.074;9.158;2024-01-27T01:48:17;101648.00;;;3.31;86.04
34177;BME280;20450;49.074;9.158;2024-01-27T01:50:44;101652.72;;;3.38;86.44
34177;BME280;20450;49.074;9.158;2024-01-27T01:53:12;101652.13;;;3.46;86.81
34177;BME280;20450;49.074;9.158;2024-01-27T01:55:39;101647.16;;;3.52;86.36
34177;BME280;20450;49.074;9.158;2024-01-27T01:58:08;101666.94;;;3.61;86.69
34177;BME280;20450;49.074;9.158;2024-01-27T02:00:35;101660.03;;;3.69;85.83
34177;BME280;20450;49.074;9.158;2024-01-27T02:03:03;101652.25;;;3.77;85.43
34177;BME280;20450;49.074;9.158;2024-01-27T02:05:31;101662.78;;;3.90;84.03
34177;BME280;20450;49.074;9.158;2024-01-27T02:07:58;101669.38;;;3.97;82.96
34177;BME280;20450;49.074;9.158;2024-01-27T02:10:25;101674.09;;;3.82;82.85
34177;BME280;20450;49.074;9.158;2024-01-27T02:12:52;101674.72;;;3.64;83.90
34177;BME280;20450;49.074;9.158;2024-01-27T02:15:20;101677.03;;;3.57;84.70
34177;BME280;20450;49.074;9.158;2024-01-27T02:17:47;101684.91;;;3.59;84.34
34177;BME280;20450;49.074;9.158;2024-01-27T02:20:14;101683.34;;;3.56;83.96
34177;BME280;20450;49.074;9.158;2024-01-27T02:22:41;101690.63;;;3.43;84.24
34177;BME280;20450;49.074;9.158;2024-01-27T02:25:09;101692.31;;;3.44;85.01
34177;BME280;20450;49.074;9.158;2024-01-27T02:27:36;101706.66;;;3.43;85.16
34177;BME280;20450;49.074;9.158;2024-01-27T02:30:04;101695.97;;;3.43;85.01
34177;BME280;20450;49.074;9.158;2024-01-27T02:32:32;101700.84;;;3.49;85.24
34177;BME280;20450;49.074;9.158;2024-01-27T02:34:59;101690.50;;;3.56;84.86
34177;BME280;20450;49.074;9.158;2024-01-27T02:37:26;101693.66;;;3.61;84.20
34177;BME280;20450;49.074;9.158;2024-01-27T02:39:53;101699.88;;;3.61;83.69
34177;BME280;20450;49.074;9.158;2024-01-27T02:42:22;101701.09;;;3.68;83.12
34177;BME280;20450;49.074;9.158;2024-01-27T02:44:49;101702.78;;;3.69;82.19
34177;BME280;20450;49.074;9.158;2024-01-27T02:47:16;101708.13;;;3.69;81.97
34177;BME280;20450;49.074;9.158;2024-01-27T02:49:43;101711.09;;;3.21;83.77
34177;BME280;20450;49.074;9.158;2024-01-27T02:52:10;101708.78;;;3.27;84.43
34177;BME280;20450;49.074;9.158;2024-01-27T02:54:37;101707.22;;;3.25;84.11
34177;BME280;20450;49.074;9.158;2024-01-27T02:57:04;101702.03;;;3.45;83.73
34177;BME280;20450;49.074;9.158;2024-01-27T02:59:33;101698.50;;;3.56;82.92
34177;BME280;20450;49.074;9.158;2024-01-27T03:02:00;101700.22;;;3.46;82.81
34177;BME280;20450;49.074;9.158;2024-01-27T03:04:28;101703.47;;;3.38;83.33
34177;BME280;20450;49.074;9.158;2024-01-27T03:06:56;101701.28;;;3.32;84.20
34177;BME280;20450;49.074;9.158;2024-01-27T03:09:23;101696.66;;;3.23;84.72
34177;BME280;20450;49.074;9.158;2024-01-27T03:11:50;101704.09;;;2.96;85.31
34177;BME280;20450;49.074;9.158;2024-01-27T03:14:17;101701.44;;;2.96;85.79
34177;BME280;20450;49.074;9.158;2024-01-27T03:16:45;101708.66;;;2.83;87.62
34177;BME280;20450;49.074;9.158;2024-01-27T03:19:12;101708.09;;;2.91;86.35
34177;BME280;20450;49.074;9.158;2024-01-27T03:21:39;101712.56;;;2.90;86.22
34177;BME280;20450;49.074;9.158;2024-01-27T03:24:06;101705.22;;;3.05;85.64
34177;BME280;20450;49.074;9.158;2024-01-27T03:26:33;101704.50;;;3.03;84.24
34177;BME280;20450;49.074;9.158;2024-01-27T03:29:00;101716.03;;;3.03;84.75
34177;BME280;20450;49.074;9.158;2024-01-27T03:31:30;101711.97;;;2.98;85.47
34177;BME280;20450;49.074;9.158;2024-01-27T03:33:59;101719.75;;;3.01;86.44
34177;BME280;20450;49.074;9.158;2024-01-27T03:36:27;101722.53;;;2.99;86.32
34177;BME280;20450;49.074;9.158;2024-01-27T03:38:56;101726.72;;;3.03;86.42
34177;BME280;20450;49.074;9.158;2024-01-27T03:41:24;101716.75;;;3.05;85.85
34177;BME280;20450;49.074;9.158;2024-01-27T03:43:51;101720.78;;;3.11;85.93
34177;BME280;20450;49.074;9.158;2024-01-27T03:46:18;101714.97;;;3.17;85.83
34177;BME280;20450;49.074;9.158;2024-01-27T03:48:45;101719.00;;;3.22;85.60
34177;BME280;20450;49.074;9.158;2024-01-27T03:51:13;101723.22;;;3.25;85.01
34177;BME280;20450;49.074;9.158;2024-01-27T03:53:40;101732.47;;;3.21;84.48
34177;BME280;20450;49.074;9.158;2024-01-27T03:56:11;101737.41;;;3.14;84.36
34177;BME280;20450;49.074;9.158;2024-01-27T03:58:38;101734.09;;;3.00;84.37
34177;BME280;20450;49.074;9.158;2024-01-27T04:01:05;101736.59;;;2.90;85.60
34177;BME280;20450;49.074;9.158;2024-01-27T04:03:33;101744.34;;;2.93;85.68
34177;BME280;20450;49.074;9.158;2024-01-27T04:06:01;101744.59;;;2.90;85.27
34177;BME280;20450;49.074;9.158;2024-01-27T04:08:30;101737.09;;;2.95;86.40
34177;BME280;20450;49.074;9.158;2024-01-27T04:11:00;101744.69;;;2.89;85.74
34177;BME280;20450;49.074;9.158;2024-01-27T04:13:27;101751.88;;;2.65;85.53
34177;BME280;20450;49.074;9.158;2024-01-27T04:15:54;101748.84;;;2.46;85.70
34177;BME280;20450;49.074;9.158;2024-01-27T04:18:21;101746.03;;;2.60;85.92
34177;BME280;20450;49.074;9.158;2024-01-27T04:20:48;101749.34;;;2.63;85.90
34177;BME280;20450;49.074;9.158;2024-01-27T04:23:17;101754.34;;;2.68;85.33
34177;BME280;20450;49.074;9.158;2024-01-27T04:25:45;101761.06;;;2.61;85.41
34177;BME280;20450;49.074;9.158;2024-01-27T04:28:12;101759.16;;;2.63;85.04
34177;BME280;20450;49.074;9.158;2024-01-27T04:30:39;101758.16;;;2.64;85.02
34177;BME280;20450;49.074;9.158;2024-01-27T04:33:06;101763.47;;;2.76;85.06
34177;BME280;20450;49.074;9.158;2024-01-27T04:35:33;101760.38;;;2.93;84.79
34177;BME280;20450;49.074;9.158;2024-01-27T04:38:00;101754.22;;;3.04;83.94
34177;BME280;20450;49.074;9.158;2024-01-27T04:40:27;101759.91;;;2.99;82.50
34177;BME280;20450;49.074;9.158;2024-01-27T04:42:56;101774.59;;;2.94;82.44
34177;BME280;20450;49.074;9.158;2024-01-27T04:45:23;101779.50;;;2.64;83.89
34177;BME280;20450;49.074;9.158;2024-01-27T04:47:50;101780.91;;;2.69;83.37
34177;BME280;20450;49.074;9.158;2024-01-27T04:50:17;101780.44;;;2.75;83.98
34177;BME280;20450;49.074;9.158;2024-01-27T04:52:44;101773.50;;;2.73;83.82
34177;BME280;20450;49.074;9.158;2024-01-27T04:55:11;101781.97;;;2.67;84.04
34177;BME280;20450;49.074;9.158;2024-01-27T04:57:38;101777.78;;;2.75;84.10
34177;BME280;20450;49.074;9.158;2024-01-27T05:00:09;101774.63;;;2.81;83.64
34177;BME280;20450;49.074;9.158;2024-01-27T05:02:39;101775.94;;;2.76;83.55
34177;BME280;20450;49.074;9.158;2024-01-27T05:05:06;101775.84;;;2.77;83.70
34177;BME280;20450;49.074;9.158;2024-01-27T05:07:34;101788.94;;;2.80;84.07
34177;BME280;20450;49.074;9.158;2024-01-27T05:10:01;101791.03;;;2.64;84.30
34177;BME280;20450;49.074;9.158;2024-01-27T05:12:28;101787.03;;;2.59;85.40
34177;BME280;20450;49.074;9.158;2024-01-27T05:14:55;101792.81;;;2.53;85.65
34177;BME280;20450;49.074;9.158;2024-01-27T05:17:23;101790.13;;;2.53;85.28
34177;BME280;20450;49.074;9.158;2024-01-27T05:19:50;101791.06;;;2.52;84.93
34177;BME280;20450;49.074;9.158;2024-01-27T05:22:18;101794.63;;;2.40;85.65
34177;BME280;20450;49.074;9.158;2024-01-27T05:24:44;101786.81;;;2.49;85.58
34177;BME280;20450;49.074;9.158;2024-01-27T05:27:11;101787.84;;;2.59;85.90
34177;BME280;20450;49.074;9.158;2024-01-27T05:29:38;101782.94;;;2.30;87.00
34177;BME280;20450;49.074;9.158;2024-01-27T05:32:06;101786.72;;;2.38;86.99
34177;BME280;20450;49.074;9.158;2024-01-27T05:34:35;101785.78;;;2.39;86.79
34177;BME280;20450;49.074;9.158;2024-01-27T05:37:02;101780.47;;;2.39;86.37
34177;BME280;20450;49.074;9.158;2024-01-27T05:39:29;101785.13;;;2.48;86.97
34177;BME280;20450;49.074;9.158;2024-01-27T05:41:56;101791.19;;;2.50;86.92
34177;BME280;20450;49.074;9.158;2024-01-27T05:44:23;101783.19;;;2.50;86.91
34177;BME280;20450;49.074;9.158;2024-01-27T05:46:50;101782.34;;;2.50;86.88
34177;BME280;20450;49.074;9.158;2024-01-27T05:49:17;101777.41;;;2.56;87.01
34177;BME280;20450;49.074;9.158;2024-01-27T05:51:46;101784.69;;;2.54;87.33
34177;BME280;20450;49.074;9.158;2024-01-27T05:54:13;101784.47;;;2.57;87.06
34177;BME280;20450;49.074;9.158;2024-01-27T05:56:40;101772.72;;;2.60;87.01
34177;BME280;20450;49.074;9.158;2024-01-27T05:59:07;101778.69;;;2.63;86.38
34177;BME280;20450;49.074;9.158;2024-01-27T06:01:34;101788.59;;;2.61;85.93
34177;BME280;20450;49.074;9.158;2024-01-27T06:04:01;101787.47;;;2.53;85.27
34177;BME280;20450;49.074;9.158;2024-01-27T06:06:28;101787.13;;;2.57;85.77
34177;BME280;20450;49.074;9.158;2024-01-27T06:08:57;101790.06;;;2.65;85.24
34177;BME280;20450;49.074;9.158;2024-01-27T06:11:24;101787.41;;;2.65;85.57
34177;BME280;20450;49.074;9.158;2024-01-27T06:13:51;101793.84;;;2.50;85.05
34177;BME280;20450;49.074;9.158;2024-01-27T06:16:18;101805.28;;;2.40;85.29
34177;BME280;20450;49.074;9.158;2024-01-27T06:18:45;101794.97;;;2.35;85.53
34177;BME280;20450;49.074;9.158;2024-01-27T06:21:12;101802.22;;;2.33;85.93
34177;BME280;20450;49.074;9.158;2024-01-27T06:23:39;101792.97;;;2.26;86.63
34177;BME280;20450;49.074;9.158;2024-01-27T06:26:09;101800.34;;;2.23;87.18
34177;BME280;20450;49.074;9.158;2024-01-27T06:28:36;101805.59;;;1.99;87.11
34177;BME280;20450;49.074;9.158;2024-01-27T06:31:03;101804.41;;;2.03;87.41
34177;BME280;20450;49.074;9.158;2024-01-27T06:33:31;101804.09;;;1.57;89.48
34177;BME280;20450;49.074;9.158;2024-01-27T06:35:58;101807.16;;;1.64;89.38
34177;BME280;20450;49.074;9.158;2024-01-27T06:38:26;101820.41;;;1.78;89.38
34177;BME280;20450;49.074;9.158;2024-01-27T06:40:53;101814.44;;;1.74;89.05
34177;BME280;20450;49.074;9.158;2024-01-27T06:43:21;101821.47;;;1.75;88.52
34177;BME280;20450;49.074;9.158;2024-01-27T06:45:48;101820.63;;;1.75;88.69
34177;BME280;20450;49.074;9.158;2024-01-27T06:48:15;101817.41;;;1.57;88.37
34177;BME280;20450;49.074;9.158;2024-01-27T06:50:42;101822.63;;;1.59;89.59
34177;BME280;20450;49.074;9.158;2024-01-27T06:53:09;101823.81;;;1.80;89.23
34177;BME280;20450;49.074;9.158;2024-01-27T06:55:36;101823.50;;;1.97;88.56
34177;BME280;20450;49.074;9.158;2024-01-27T06:58:06;101824.44;;;2.08;87.64
34177;BME280;20450;49.074;9.158;2024-01-27T07:00:34;101827.63;;;2.14;86.70
34177;BME280;20450;49.074;9.158;2024-01-27T07:03:01;101824.41;;;2.34;85.94
34177;BME280;20450;49.074;9.158;2024-01-27T07:05:29;101827.59;;;2.51;84.59
34177;BME280;20450;49.074;9.158;2024-01-27T07:07:56;101828.34;;;2.41;83.83
34177;BME280;20450;49.074;9.158;2024-01-27T07:10:25;101835.81;;;2.48;83.80
34177;BME280;20450;49.074;9.158;2024-01-27T07:12:52;101828.75;;;2.47;82.81
34177;BME280;20450;49.074;9.158;2024-01-27T07:15:19;101827.06;;;2.34;83.22
34177;BME280;20450;49.074;9.158;2024-01-27T07:17:47;101836.84;;;2.46;83.28
34177;BME280;20450;49.074;9.158;2024-01-27T07:20:15;101832.69;;;2.54;82.77
34177;BME280;20450;49.074;9.158;2024-01-27T07:22:42;101829.97;;;3.03;82.72
34177;BME280;20450;49.074;9.158;2024-01-27T07:25:09;101833.25;;;3.64;81.09
34177;BME280;20450;49.074;9.158;2024-01-27T07:27:36;101835.09;;;3.86;78.24
34177;BME280;20450;49.074;9.158;2024-01-27T07:30:04;101831.38;;;4.55;76.00
34177;BME280;20450;49.074;9.158;2024-01-27T07:32:33;101836.44;;;4.91;73.95
34177;BME280;20450;49.074;9.158;2024-01-27T07:35:02;101840.41;;;4.96;73.05
34177;BME280;20450;49.074;9.158;2024-01-27T07:37:29;101837.44;;;5.42;72.82
34177;BME280;20450;49.074;9.158;2024-01-27T07:39:56;101853.00;;;6.00;70.59
34177;BME280;20450;49.074;9.158;2024-01-27T07:42:23;101848.66;;;6.29;70.02
34177;BME280;20450;49.074;9.158;2024-01-27T07:44:50;101844.78;;;6.52;68.44
34177;BME280;20450;49.074;9.158;2024-01-27T07:47:17;101854.25;;;6.96;65.57
34177;BME280;20450;49.074;9.158;2024-01-27T07:49:44;101844.53;;;6.55;67.62
34177;BME280;20450;49.074;9.158;2024-01-27T07:52:13;101846.56;;;6.72;67.43
34177;BME280;20450;49.074;9.158;2024-01-27T07:54:40;101835.38;;;7.26;65.98
34177;BME280;20450;49.074;9.158;2024-01-27T07:57:07;101841.06;;;8.17;62.54
34177;BME280;20450;49.074;9.158;2024-01-27T07:59:34;101836.84;;;9.05;59.16
34177;BME280;20450;49.074;9.158;2024-01-27T08:02:01;101850.44;;;9.83;56.45
34177;BME280;20450;49.074;9.158;2024-01-27T08:04:28;101821.78;;;10.33;60.32
34177;BME280;20450;49.074;9.158;2024-01-27T08:06:55;101825.69;;;10.80;59.68
34177;BME280;20450;49.074;9.158;2024-01-27T08:09:24;101847.69;;;11.35;54.77
34177;BME280;20450;49.074;9.158;2024-01-27T08:11:51;101837.41;;;11.62;55.58
34177;BME280;20450;49.074;9.158;2024-01-27T08:14:19;101843.97;;;12.16;53.10
34177;BME280;20450;49.074;9.158;2024-01-27T08:16:47;101855.66;;;11.52;53.68
34177;BME280;20450;49.074;9.158;2024-01-27T08:19:15;101876.84;;;11.73;50.38
34177;BME280;20450;49.074;9.158;2024-01-27T08:21:42;101880.19;;;11.01;51.22
34177;BME280;20450;49.074;9.158;2024-01-27T08:24:09;101840.59;;;10.17;55.48
34177;BME280;20450;49.074;9.158;2024-01-27T08:26:37;101835.41;;;9.28;58.12
34177;BME280;20450;49.074;9.158;2024-01-27T08:29:04;101819.13;;;9.02;59.83
34177;BME280;20450;49.074;9.158;2024-01-27T08:31:31;101824.53;;;8.48;62.07
34177;BME280;20450;49.074;9.158;2024-01-27T08:33:58;101830.41;;;8.34;62.88
34177;BME280;20450;49.074;9.158;2024-01-27T08:36:25;101831.22;;;8.44;63.02
34177;BME280;20450;49.074;9.158;2024-01-27T08:38:54;101839.81;;;8.84;60.38
34177;BME280;20450;49.074;9.158;2024-01-27T08:41:22;101829.22;;;9.00;62.35
34177;BME280;20450;49.074;9.158;2024-01-27T08:44:04;101857.69;;;10.26;56.39
34177;BME280;20450;49.074;9.158;2024-01-27T08:46:32;101860.94;;;11.04;54.76
34177;BME280;20450;49.074;9.158;2024-01-27T08:48:59;101881.41;;;11.64;51.10
34177;BME280;20450;49.074;9.158;2024-01-27T08:51:27;101857.03;;;11.80;53.20
34177;BME280;20450;49.074;9.158;2024-01-27T08:53:54;101864.97;;;12.14;51.02
34177;BME280;20450;49.074;9.158;2024-01-27T08:56:21;101844.69;;;12.65;52.18
34177;BME280;20450;49.074;9.158;2024-01-27T08:58:48;101880.25;;;13.24;48.69
34177;BME280;20450;49.074;9.158;2024-01-27T09:01:17;101892.22;;;12.45;48.88
34177;BME280;20450;49.074;9.158;2024-01-27T09:03:44;101869.31;;;11.35;51.14
34177;BME280;20450;49.074;9.158;2024-01-27T09:06:11;101869.56;;;11.73;50.40
34177;BME280;20450;49.074;9.158;2024-01-27T09:08:39;101863.81;;;11.76;49.63
34177;BME280;20450;49.074;9.158;2024-01-27T09:11:05;101861.09;;;11.84;50.46
34177;BME280;20450;49.074;9.158;2024-01-27T09:13:34;101853.78;;;11.45;50.90
34177;BME280;20450;49.074;9.158;2024-01-27T09:16:01;101860.41;;;12.85;50.19
34177;BME280;20450;49.074;9.158;2024-01-27T09:18:30;101914.63;;;13.32;45.86
34177;BME280;20450;49.074;9.158;2024-01-27T09:20:57;101889.72;;;12.90;47.75
34177;BME280;20450;49.074;9.158;2024-01-27T09:23:24;101881.72;;;12.34;48.25
34177;BME280;20450;49.074;9.158;2024-01-27T09:25:51;101882.94;;;12.86;46.80
34177;BME280;20450;49.074;9.158;2024-01-27T09:28:19;101909.50;;;13.90;45.32
34177;BME280;20450;49.074;9.158;2024-01-27T09:30:46;101895.03;;;15.36;45.27
34177;BME280;20450;49.074;9.158;2024-01-27T09:33:14;101932.50;;;16.06;41.84
34177;BME280;20450;49.074;9.158;2024-01-27T09:35:42;101956.53;;;16.38;39.55
34177;BME280;20450;49.074;9.158;2024-01-27T09:38:09;101951.47;;;16.56;41.61
34177;BME280;20450;49.074;9.158;2024-01-27T09:40:36;101971.56;;;17.10;39.09
34177;BME280;20450;49.074;9.158;2024-01-27T09:43:06;101996.16;;;17.44;37.35
34177;BME280;20450;49.074;9.158;2024-01-27T09:45:38;101978.53;;;18.13;38.12
34177;BME280;20450;49.074;9.158;2024-01-27T09:48:10;102014.44;;;18.83;34.37
34177;BME280;20450;49.074;9.158;2024-01-27T09:50:42;102041.97;;;19.40;33.35
34177;BME280;20450;49.074;9.158;2024-01-27T09:53:12;102055.72;;;19.01;33.03
34177;BME280;20450;49.074;9.158;2024-01-27T09:55:42;102052.38;;;18.07;34.49
34177;BME280;20450;49.074;9.158;2024-01-27T09:58:10;102015.88;;;18.47;36.41
34177;BME280;20450;49.074;9.158;2024-01-27T10:00:38;102038.19;;;19.28;33.63
34177;BME280;20450;49.074;9.158;2024-01-27T10:03:08;102054.69;;;19.86;32.72
34177;BME280;20450;49.074;9.158;2024-01-27T10:05:37;102064.81;;;20.36;32.26
34177;BME280;20450;49.074;9.158;2024-01-27T10:08:09;102084.13;;;19.13;32.71
34177;BME280;20450;49.074;9.158;2024-01-27T10:10:36;102063.72;;;19.35;33.95
34177;BME280;20450;49.074;9.158;2024-01-27T10:13:06;102069.50;;;19.72;32.19
34177;BME280;20450;49.074;9.158;2024-01-27T10:15:33;102065.47;;;20.31;31.79
34177;BME280;20450;49.074;9.158;2024-01-27T10:18:06;102077.59;;;19.54;32.42
34177;BME280;20450;49.074;9.158;2024-01-27T10:20:34;102065.56;;;19.55;31.84
34177;BME280;20450;49.074;9.158;2024-01-27T10:23:12;102063.00;;;18.42;33.59
34177;BME280;20450;49.074;9.158;2024-01-27T10:25:43;102037.78;;;18.79;33.80
34177;BME280;20450;49.074;9.158;2024-01-27T10:28:11;102036.59;;;19.72;33.04
34177;BME280;20450;49.074;9.158;2024-01-27T10:30:42;102029.88;;;20.49;32.70
34177;BME280;20450;49.074;9.158;2024-01-27T10:33:10;102041.41;;;21.13;30.83
34177;BME280;20450;49.074;9.158;2024-01-27T10:35:38;102047.94;;;20.94;30.56
34177;BME280;20450;49.074;9.158;2024-01-27T10:38:05;102053.59;;;18.64;33.50
34177;BME280;20450;49.074;9.158;2024-01-27T10:40:35;102029.16;;;19.85;33.39
34177;BME280;20450;49.074;9.158;2024-01-27T10:43:03;102028.56;;;17.94;34.76
34177;BME280;20450;49.074;9.158;2024-01-27T10:45:36;102021.16;;;18.87;34.52
34177;BME280;20450;49.074;9.158;2024-01-27T10:48:06;102010.22;;;19.77;33.22
34177;BME280;20450;49.074;9.158;2024-01-27T10:50:37;102015.25;;;18.97;33.33
34177;BME280;20450;49.074;9.158;2024-01-27T10:53:21;102007.97;;;20.05;31.82
34177;BME280;20450;49.074;9.158;2024-01-27T10:55:54;101982.00;;;18.48;35.24
34177;BME280;20450;49.074;9.158;2024-01-27T10:58:26;101974.69;;;17.88;35.22
34177;BME280;20450;49.074;9.158;2024-01-27T11:00:56;101951.00;;;17.48;36.02
34177;BME280;20450;49.074;9.158;2024-01-27T11:03:25;101954.41;;;18.49;34.00
34177;BME280;20450;49.074;9.158;2024-01-27T11:05:56;101965.09;;;18.90;32.75
34177;BME280;20450;49.074;9.158;2024-01-27T11:08:25;101953.50;;;18.94;32.92
34177;BME280;20450;49.074;9.158;2024-01-27T11:10:55;101956.56;;;19.88;32.82
34177;BME280;20450;49.074;9.158;2024-01-27T11:13:23;101962.78;;;20.39;31.57
34177;BME280;20450;49.074;9.158;2024-01-27T11:15:51;101978.88;;;21.09;30.85
34177;BME280;20450;49.074;9.158;2024-01-27T11:18:19;101987.66;;;21.90;29.89
34177;BME280;20450;49.074;9.158;2024-01-27T11:20:52;102001.66;;;22.18;29.61
34177;BME280;20450;49.074;9.158;2024-01-27T11:23:20;102001.69;;;22.29;28.80
34177;BME280;20450;49.074;9.158;2024-01-27T11:25:47;102013.75;;;22.46;28.65
34177;BME280;20450;49.074;9.158;2024-01-27T11:28:16;102005.47;;;21.15;29.77
34177;BME280;20450;49.074;9.158;2024-01-27T11:30:46;101984.84;;;20.26;31.57
34177;BME280;20450;49.074;9.158;2024-01-27T11:33:14;101971.59;;;19.79;31.91
34177;BME280;20450;49.074;9.158;2024-01-27T11:35:42;101973.41;;;17.78;34.02
34177;BME280;20450;49.074;9.158;2024-01-27T11:38:09;101954.06;;;19.22;32.56
34177;BME280;20450;49.074;9.158;2024-01-27T11:40:45;101938.44;;;20.18;31.98
34177;BME280;20450;49.074;9.158;2024-01-27T11:43:16;101948.78;;;17.30;34.95
34177;BME280;20450;49.074;9.158;2024-01-27T11:45:43;101930.00;;;19.37;32.29
34177;BME280;20450;49.074;9.158;2024-01-27T11:48:21;101940.19;;;20.12;31.24
34177;BME280;20450;49.074;9.158;2024-01-27T11:50:48;101949.56;;;21.03;29.75
34177;BME280;20450;49.074;9.158;2024-01-27T11:53:15;101946.44;;;19.51;31.70
34177;BME280;20450;49.074;9.158;2024-01-27T11:55:43;101926.69;;;19.16;32.83
34177;BME280;20450;49.074;9.158;2024-01-27T11:58:23;101908.91;;;18.74;33.78
34177;BME280;20450;49.074;9.158;2024-01-27T12:00:50;101896.47;;;20.11;32.10
34177;BME280;20450;49.074;9.158;2024-01-27T12:03:21;101898.41;;;18.58;33.21
34177;BME280;20450;49.074;9.158;2024-01-27T12:05:48;101897.69;;;19.90;32.19
34177;BME280;20450;49.074;9.158;2024-01-27T12:08:17;101904.28;;;20.63;30.86
34177;BME280;20450;49.074;9.158;2024-01-27T12:10:44;101922.03;;;20.85;30.22
34177;BME280;20450;49.074;9.158;2024-01-27T12:13:11;101923.91;;;20.42;30.43
34177;BME280;20450;49.074;9.158;2024-01-27T12:15:42;101917.50;;;21.15;29.80
34177;BME280;20450;49.074;9.158;2024-01-27T12:18:10;101941.19;;;21.64;28.66
34177;BME280;20450;49.074;9.158;2024-01-27T12:20:38;101946.41;;;21.90;28.90
34177;BME280;20450;49.074;9.158;2024-01-27T12:23:06;101945.63;;;22.12;29.03
34177;BME280;20450;49.074;9.158;2024-01-27T12:25:34;101956.91;;;22.22;28.15
34177;BME280;20450;49.074;9.158;2024-01-27T12:28:02;101961.63;;;22.45;27.61
34177;BME280;20450;49.074;9.158;2024-01-27T12:30:31;101958.56;;;22.53;27.95
34177;BME280;20450;49.074;9.158;2024-01-27T12:33:09;101947.91;;;21.20;29.36
34177;BME280;20450;49.074;9.158;2024-01-27T12:35:38;101932.53;;;20.70;30.29
34177;BME280;20450;49.074;9.158;2024-01-27T12:38:05;101919.22;;;20.91;29.83
34177;BME280;20450;49.074;9.158;2024-01-27T12:40:32;101915.97;;;21.37;28.96
34177;BME280;20450;49.074;9.158;2024-01-27T12:42:59;101917.06;;;20.75;30.28
34177;BME280;20450;49.074;9.158;2024-01-27T12:45:26;101903.03;;;19.34;32.77
34177;BME280;20450;49.074;9.158;2024-01-27T12:47:56;101874.25;;;17.02;36.48
34177;BME280;20450;49.074;9.158;2024-01-27T12:50:25;101819.81;;;15.99;39.37
34177;BME280;20450;49.074;9.158;2024-01-27T12:52:54;101792.06;;;15.89;39.69
34177;BME280;20450;49.074;9.158;2024-01-27T12:55:21;101772.13;;;15.82;40.26
34177;BME280;20450;49.074;9.158;2024-01-27T12:57:48;101758.22;;;15.77;40.42
34177;BME280;20450;49.074;9.158;2024-01-27T13:00:17;101737.25;;;14.57;42.05